sensor_id;sensor_type;location;lat;lon;timestamp;P1;durP1;ratioP1;P2;durP2;ratioP2
16228;SDS011;8222;51.462;12.630;2023-10-19T00:00:18;10.25;;;9.25;;
16228;SDS011;8222;51.462;12.630;2023-10-19T00:02:53;9.50;;;8.57;;
16228;SDS011;8222;51.462;12.630;2023-10-19T00:05:20;11.27;;;10.07;;
16228;SDS011;8222;51.462;12.630;2023-10-19T00:07:48;9.80;;;8.30;;
16228;SDS011;8222;51.462;12.630;2023-10-19T00:10:14;10.27;;;9.18;;
16228;SDS011;8222;51.462;12.630;2023-10-19T00:12:43;16.97;;;8.67;;
16228;SDS011;8222;51.462;12.630;2023-10-19T00:15:09;10.40;;;7.53;;
16228;SDS011;8222;51.462;12.630;2023-10-19T00:17:38;11.60;;;8.13;;
16228;SDS011;8222;51.462;12.630;2023-10-19T00:20:05;11.77;;;8.27;;
16228;SDS011;8222;51.462;12.630;2023-10-19T00:22:50;10.98;;;8.68;;
16228;SDS011;8222;51.462;12.630;2023-10-19T00:25:17;9.98;;;8.93;;
16228;SDS011;8222;51.462;12.630;2023-10-19T00:27:48;11.05;;;8.38;;
16228;SDS011;8222;51.462;12.630;2023-10-19T00:30:18;10.15;;;9.05;;
16228;SDS011;8222;51.462;12.630;2023-10-19T00:32:48;10.07;;;7.93;;
16228;SDS011;8222;51.462;12.630;2023-10-19T00:35:15;11.13;;;8.53;;
16228;SDS011;8222;51.462;12.630;2023-10-19T00:37:59;9.23;;;7.40;;
16228;SDS011;8222;51.462;12.630;2023-10-19T00:40:51;7.60;;;6.87;;
16228;SDS011;8222;51.462;12.630;2023-10-19T00:43:33;8.68;;;7.40;;
16228;SDS011;8222;51.462;12.630;2023-10-19T00:46:17;8.93;;;7.93;;
16228;SDS011;8222;51.462;12.630;2023-10-19T00:48:44;9.90;;;8.93;;
16228;SDS011;8222;51.462;12.630;2023-10-19T00:51:20;11.35;;;9.15;;
16228;SDS011;8222;51.462;12.630;2023-10-19T00:53:55;9.23;;;8.17;;
16228;SDS011;8222;51.462;12.630;2023-10-19T00:56:28;8.90;;;8.00;;
16228;SDS011;8222;51.462;12.630;2023-10-19T00:58:58;9.63;;;8.30;;
16228;SDS011;8222;51.462;12.630;2023-10-19T01:01:42;9.70;;;8.80;;
16228;SDS011;8222;51.462;12.630;2023-10-19T01:04:13;9.40;;;7.27;;
16228;SDS011;8222;51.462;12.630;2023-10-19T01:06:40;11.15;;;8.77;;
16228;SDS011;8222;51.462;12.630;2023-10-19T01:09:23;10.02;;;8.93;;
16228;SDS011;8222;51.462;12.630;2023-10-19T01:11:52;10.53;;;7.97;;
16228;SDS011;8222;51.462;12.630;2023-10-19T01:14:23;8.87;;;7.50;;
16228;SDS011;8222;51.462;12.630;2023-10-19T01:16:53;9.03;;;7.57;;
16228;SDS011;8222;51.462;12.630;2023-10-19T01:19:25;10.13;;;8.52;;
16228;SDS011;8222;51.462;12.630;2023-10-19T01:21:53;9.68;;;8.75;;
16228;SDS011;8222;51.462;12.630;2023-10-19T01:24:26;8.60;;;7.73;;
16228;SDS011;8222;51.462;12.630;2023-10-19T01:27:10;10.67;;;7.47;;
16228;SDS011;8222;51.462;12.630;2023-10-19T01:29:38;10.52;;;9.05;;
16228;SDS011;8222;51.462;12.630;2023-10-19T01:32:06;9.30;;;7.33;;
16228;SDS011;8222;51.462;12.630;2023-10-19T01:34:37;9.17;;;7.27;;
16228;SDS011;8222;51.462;12.630;2023-10-19T01:37:05;10.77;;;7.70;;
16228;SDS011;8222;51.462;12.630;2023-10-19T01:39:33;10.48;;;7.97;;
16228;SDS011;8222;51.462;12.630;2023-10-19T01:42:04;9.02;;;8.13;;
16228;SDS011;8222;51.462;12.630;2023-10-19T01:44:30;9.50;;;8.48;;
16228;SDS011;8222;51.462;12.630;2023-10-19T01:46:56;9.38;;;8.38;;
16228;SDS011;8222;51.462;12.630;2023-10-19T01:49:22;8.82;;;7.93;;
16228;SDS011;8222;51.462;12.630;2023-10-19T01:51:54;8.67;;;6.33;;
16228;SDS011;8222;51.462;12.630;2023-10-19T01:54:29;9.95;;;7.30;;
16228;SDS011;8222;51.462;12.630;2023-10-19T01:56:58;8.68;;;7.78;;
16228;SDS011;8222;51.462;12.630;2023-10-19T01:59:24;8.07;;;7.27;;
16228;SDS011;8222;51.462;12.630;2023-10-19T02:01:55;8.93;;;8.02;;
16228;SDS011;8222;51.462;12.630;2023-10-19T02:04:24;8.60;;;7.68;;
16228;SDS011;8222;51.462;12.630;2023-10-19T02:06:52;9.60;;;8.18;;
16228;SDS011;8222;51.462;12.630;2023-10-19T02:09:18;8.57;;;7.70;;
16228;SDS011;8222;51.462;12.630;2023-10-19T02:11:57;9.43;;;8.23;;
16228;SDS011;8222;51.462;12.630;2023-10-19T02:14:26;10.10;;;7.03;;
16228;SDS011;8222;51.462;12.630;2023-10-19T02:16:56;8.68;;;7.82;;
16228;SDS011;8222;51.462;12.630;2023-10-19T02:19:26;8.27;;;6.67;;
16228;SDS011;8222;51.462;12.630;2023-10-19T02:21:54;7.20;;;6.50;;
16228;SDS011;8222;51.462;12.630;2023-10-19T02:24:23;7.77;;;6.63;;
16228;SDS011;8222;51.462;12.630;2023-10-19T02:26:55;8.90;;;8.00;;
16228;SDS011;8222;51.462;12.630;2023-10-19T02:29:22;8.93;;;8.00;;
16228;SDS011;8222;51.462;12.630;2023-10-19T02:31:51;7.90;;;7.20;;
16228;SDS011;8222;51.462;12.630;2023-10-19T02:34:21;13.32;;;8.13;;
16228;SDS011;8222;51.462;12.630;2023-10-19T02:36:54;9.95;;;7.22;;
16228;SDS011;8222;51.462;12.630;2023-10-19T02:39:20;9.30;;;7.22;;
16228;SDS011;8222;51.462;12.630;2023-10-19T02:41:55;8.23;;;7.43;;
16228;SDS011;8222;51.462;12.630;2023-10-19T02:44:32;9.05;;;7.93;;
16228;SDS011;8222;51.462;12.630;2023-10-19T02:46:58;8.47;;;6.80;;
16228;SDS011;8222;51.462;12.630;2023-10-19T02:49:33;9.00;;;6.40;;
16228;SDS011;8222;51.462;12.630;2023-10-19T02:52:03;9.27;;;6.43;;
16228;SDS011;8222;51.462;12.630;2023-10-19T02:54:29;10.13;;;6.23;;
16228;SDS011;8222;51.462;12.630;2023-10-19T02:56:58;8.43;;;6.88;;
16228;SDS011;8222;51.462;12.630;2023-10-19T02:59:27;9.87;;;6.57;;
16228;SDS011;8222;51.462;12.630;2023-10-19T03:01:59;9.40;;;8.10;;
16228;SDS011;8222;51.462;12.630;2023-10-19T03:04:46;7.33;;;6.63;;
16228;SDS011;8222;51.462;12.630;2023-10-19T03:07:11;9.00;;;8.07;;
16228;SDS011;8222;51.462;12.630;2023-10-19T03:09:41;8.45;;;7.70;;
16228;SDS011;8222;51.462;12.630;2023-10-19T03:12:18;7.93;;;7.05;;
16228;SDS011;8222;51.462;12.630;2023-10-19T03:14:54;8.63;;;7.72;;
16228;SDS011;8222;51.462;12.630;2023-10-19T03:17:25;7.03;;;5.87;;
16228;SDS011;8222;51.462;12.630;2023-10-19T03:19:53;7.40;;;6.70;;
16228;SDS011;8222;51.462;12.630;2023-10-19T03:22:20;7.20;;;6.57;;
16228;SDS011;8222;51.462;12.630;2023-10-19T03:24:46;8.93;;;7.78;;
16228;SDS011;8222;51.462;12.630;2023-10-19T03:27:24;8.80;;;7.90;;
16228;SDS011;8222;51.462;12.630;2023-10-19T03:29:51;10.57;;;8.23;;
16228;SDS011;8222;51.462;12.630;2023-10-19T03:32:20;7.30;;;6.60;;
16228;SDS011;8222;51.462;12.630;2023-10-19T03:35:01;7.87;;;7.07;;
16228;SDS011;8222;51.462;12.630;2023-10-19T03:37:29;7.83;;;6.73;;
16228;SDS011;8222;51.462;12.630;2023-10-19T03:39:55;9.55;;;7.47;;
16228;SDS011;8222;51.462;12.630;2023-10-19T03:42:26;7.90;;;6.90;;
16228;SDS011;8222;51.462;12.630;2023-10-19T03:45:07;8.70;;;7.10;;
16228;SDS011;8222;51.462;12.630;2023-10-19T03:47:40;7.00;;;6.28;;
16228;SDS011;8222;51.462;12.630;2023-10-19T03:50:08;9.07;;;6.30;;
16228;SDS011;8222;51.462;12.630;2023-10-19T03:52:40;7.40;;;6.43;;
16228;SDS011;8222;51.462;12.630;2023-10-19T03:55:06;8.37;;;7.47;;
16228;SDS011;8222;51.462;12.630;2023-10-19T03:57:48;8.50;;;7.70;;
16228;SDS011;8222;51.462;12.630;2023-10-19T04:00:30;10.03;;;7.83;;
16228;SDS011;8222;51.462;12.630;2023-10-19T04:03:00;9.20;;;7.82;;
16228;SDS011;8222;51.462;12.630;2023-10-19T04:05:27;8.53;;;6.20;;
16228;SDS011;8222;51.462;12.630;2023-10-19T04:07:53;7.33;;;6.50;;
16228;SDS011;8222;51.462;12.630;2023-10-19T04:10:40;8.55;;;7.63;;
16228;SDS011;8222;51.462;12.630;2023-10-19T04:13:12;10.23;;;7.80;;
16228;SDS011;8222;51.462;12.630;2023-10-19T04:15:37;8.20;;;7.32;;
16228;SDS011;8222;51.462;12.630;2023-10-19T04:18:06;9.73;;;6.97;;
16228;SDS011;8222;51.462;12.630;2023-10-19T04:20:38;8.93;;;7.50;;
16228;SDS011;8222;51.462;12.630;2023-10-19T04:23:22;8.07;;;6.70;;
16228;SDS011;8222;51.462;12.630;2023-10-19T04:26:00;8.17;;;6.90;;
16228;SDS011;8222;51.462;12.630;2023-10-19T04:28:30;7.93;;;6.00;;
16228;SDS011;8222;51.462;12.630;2023-10-19T04:31:08;9.07;;;6.43;;
16228;SDS011;8222;51.462;12.630;2023-10-19T04:33:41;8.13;;;7.10;;
16228;SDS011;8222;51.462;12.630;2023-10-19T04:36:11;8.13;;;6.70;;
16228;SDS011;8222;51.462;12.630;2023-10-19T04:38:40;9.80;;;8.20;;
16228;SDS011;8222;51.462;12.630;2023-10-19T04:41:06;9.73;;;7.30;;
16228;SDS011;8222;51.462;12.630;2023-10-19T04:43:34;9.40;;;8.20;;
16228;SDS011;8222;51.462;12.630;2023-10-19T04:46:04;9.20;;;7.65;;
16228;SDS011;8222;51.462;12.630;2023-10-19T04:48:36;7.93;;;6.37;;
16228;SDS011;8222;51.462;12.630;2023-10-19T04:51:14;10.15;;;7.55;;
16228;SDS011;8222;51.462;12.630;2023-10-19T04:53:42;9.30;;;7.80;;
16228;SDS011;8222;51.462;12.630;2023-10-19T04:56:08;9.07;;;8.18;;
16228;SDS011;8222;51.462;12.630;2023-10-19T04:58:40;9.38;;;7.70;;
16228;SDS011;8222;51.462;12.630;2023-10-19T05:01:08;9.47;;;7.53;;
16228;SDS011;8222;51.462;12.630;2023-10-19T05:03:36;8.83;;;7.67;;
16228;SDS011;8222;51.462;12.630;2023-10-19T05:06:16;9.90;;;8.18;;
16228;SDS011;8222;51.462;12.630;2023-10-19T05:08:44;9.10;;;8.13;;
16228;SDS011;8222;51.462;12.630;2023-10-19T05:11:14;11.57;;;8.65;;
16228;SDS011;8222;51.462;12.630;2023-10-19T05:13:42;9.67;;;8.73;;
16228;SDS011;8222;51.462;12.630;2023-10-19T05:16:13;8.73;;;7.10;;
16228;SDS011;8222;51.462;12.630;2023-10-19T05:18:50;10.13;;;6.60;;
16228;SDS011;8222;51.462;12.630;2023-10-19T05:21:18;9.70;;;7.50;;
16228;SDS011;8222;51.462;12.630;2023-10-19T05:23:46;9.15;;;7.93;;
16228;SDS011;8222;51.462;12.630;2023-10-19T05:26:12;12.00;;;8.63;;
16228;SDS011;8222;51.462;12.630;2023-10-19T05:28:40;8.20;;;7.30;;
16228;SDS011;8222;51.462;12.630;2023-10-19T05:31:07;10.15;;;8.65;;
16228;SDS011;8222;51.462;12.630;2023-10-19T05:33:33;8.90;;;8.00;;
16228;SDS011;8222;51.462;12.630;2023-10-19T05:36:01;10.18;;;9.07;;
16228;SDS011;8222;51.462;12.630;2023-10-19T05:38:30;12.73;;;7.95;;
16228;SDS011;8222;51.462;12.630;2023-10-19T05:40:57;11.30;;;9.15;;
16228;SDS011;8222;51.462;12.630;2023-10-19T05:43:25;13.37;;;11.37;;
16228;SDS011;8222;51.462;12.630;2023-10-19T05:45:53;9.23;;;8.02;;
16228;SDS011;8222;51.462;12.630;2023-10-19T05:48:22;8.00;;;6.73;;
16228;SDS011;8222;51.462;12.630;2023-10-19T05:50:50;10.30;;;8.47;;
16228;SDS011;8222;51.462;12.630;2023-10-19T05:53:21;13.03;;;7.90;;
16228;SDS011;8222;51.462;12.630;2023-10-19T05:55:49;9.95;;;8.50;;
16228;SDS011;8222;51.462;12.630;2023-10-19T05:58:18;10.63;;;9.55;;
16228;SDS011;8222;51.462;12.630;2023-10-19T06:00:45;10.82;;;9.02;;
16228;SDS011;8222;51.462;12.630;2023-10-19T06:03:14;10.88;;;9.80;;
16228;SDS011;8222;51.462;12.630;2023-10-19T06:05:44;11.02;;;9.10;;
16228;SDS011;8222;51.462;12.630;2023-10-19T06:08:16;11.53;;;10.20;;
16228;SDS011;8222;51.462;12.630;2023-10-19T06:10:45;9.50;;;7.83;;
16228;SDS011;8222;51.462;12.630;2023-10-19T06:13:19;13.10;;;10.07;;
16228;SDS011;8222;51.462;12.630;2023-10-19T06:15:45;12.32;;;10.30;;
16228;SDS011;8222;51.462;12.630;2023-10-19T06:18:12;15.57;;;11.00;;
16228;SDS011;8222;51.462;12.630;2023-10-19T06:20:42;33.73;;;25.63;;
16228;SDS011;8222;51.462;12.630;2023-10-19T06:23:15;23.50;;;15.53;;
16228;SDS011;8222;51.462;12.630;2023-10-19T06:25:43;18.42;;;16.05;;
16228;SDS011;8222;51.462;12.630;2023-10-19T06:28:09;20.05;;;16.40;;
16228;SDS011;8222;51.462;12.630;2023-10-19T06:30:37;13.07;;;11.50;;
16228;SDS011;8222;51.462;12.630;2023-10-19T06:33:06;12.57;;;11.27;;
16228;SDS011;8222;51.462;12.630;2023-10-19T06:35:34;13.20;;;10.98;;
16228;SDS011;8222;51.462;12.630;2023-10-19T06:38:05;17.43;;;15.37;;
16228;SDS011;8222;51.462;12.630;2023-10-19T06:40:36;13.40;;;11.45;;
16228;SDS011;8222;51.462;12.630;2023-10-19T06:43:02;13.73;;;12.27;;
16228;SDS011;8222;51.462;12.630;2023-10-19T06:45:30;11.18;;;9.98;;
16228;SDS011;8222;51.462;12.630;2023-10-19T06:47:59;10.33;;;9.23;;
16228;SDS011;8222;51.462;12.630;2023-10-19T06:50:28;13.40;;;10.57;;
16228;SDS011;8222;51.462;12.630;2023-10-19T06:52:54;8.90;;;8.07;;
16228;SDS011;8222;51.462;12.630;2023-10-19T06:55:19;9.47;;;8.47;;
16228;SDS011;8222;51.462;12.630;2023-10-19T06:57:50;9.60;;;8.60;;
16228;SDS011;8222;51.462;12.630;2023-10-19T07:00:20;11.98;;;10.40;;
16228;SDS011;8222;51.462;12.630;2023-10-19T07:02:55;11.70;;;10.50;;
16228;SDS011;8222;51.462;12.630;2023-10-19T07:05:25;12.50;;;10.45;;
16228;SDS011;8222;51.462;12.630;2023-10-19T07:07:57;12.50;;;11.20;;
16228;SDS011;8222;51.462;12.630;2023-10-19T07:10:24;15.00;;;11.82;;
16228;SDS011;8222;51.462;12.630;2023-10-19T07:12:54;10.73;;;9.47;;
16228;SDS011;8222;51.462;12.630;2023-10-19T07:15:23;10.43;;;8.57;;
16228;SDS011;8222;51.462;12.630;2023-10-19T07:17:50;11.85;;;10.45;;
16228;SDS011;8222;51.462;12.630;2023-10-19T07:20:22;11.97;;;9.30;;
16228;SDS011;8222;51.462;12.630;2023-10-19T07:22:52;11.87;;;8.93;;
16228;SDS011;8222;51.462;12.630;2023-10-19T07:25:24;9.30;;;8.23;;
16228;SDS011;8222;51.462;12.630;2023-10-19T07:27:51;11.25;;;9.88;;
16228;SDS011;8222;51.462;12.630;2023-10-19T07:30:27;11.05;;;9.45;;
16228;SDS011;8222;51.462;12.630;2023-10-19T07:32:54;10.48;;;9.40;;
16228;SDS011;8222;51.462;12.630;2023-10-19T07:35:23;10.87;;;9.77;;
16228;SDS011;8222;51.462;12.630;2023-10-19T07:37:52;10.70;;;8.60;;
16228;SDS011;8222;51.462;12.630;2023-10-19T07:40:20;11.55;;;10.45;;
16228;SDS011;8222;51.462;12.630;2023-10-19T07:42:48;12.13;;;9.40;;
16228;SDS011;8222;51.462;12.630;2023-10-19T07:45:15;10.07;;;9.00;;
16228;SDS011;8222;51.462;12.630;2023-10-19T07:47:43;30.30;;;25.30;;
16228;SDS011;8222;51.462;12.630;2023-10-19T07:50:10;31.23;;;24.93;;
16228;SDS011;8222;51.462;12.630;2023-10-19T07:52:46;12.35;;;10.63;;
16228;SDS011;8222;51.462;12.630;2023-10-19T07:55:15;12.32;;;10.18;;
16228;SDS011;8222;51.462;12.630;2023-10-19T07:57:44;10.70;;;7.97;;
16228;SDS011;8222;51.462;12.630;2023-10-19T08:00:18;11.90;;;10.50;;
16228;SDS011;8222;51.462;12.630;2023-10-19T08:02:46;9.88;;;8.90;;
16228;SDS011;8222;51.462;12.630;2023-10-19T08:05:16;16.13;;;12.30;;
16228;SDS011;8222;51.462;12.630;2023-10-19T08:07:45;14.77;;;12.77;;
16228;SDS011;8222;51.462;12.630;2023-10-19T08:10:12;14.20;;;12.90;;
16228;SDS011;8222;51.462;12.630;2023-10-19T08:12:39;11.70;;;10.63;;
16228;SDS011;8222;51.462;12.630;2023-10-19T08:15:12;13.25;;;12.05;;
16228;SDS011;8222;51.462;12.630;2023-10-19T08:17:45;12.07;;;9.63;;
16228;SDS011;8222;51.462;12.630;2023-10-19T08:20:14;17.65;;;16.05;;
16228;SDS011;8222;51.462;12.630;2023-10-19T08:22:50;13.45;;;12.15;;
16228;SDS011;8222;51.462;12.630;2023-10-19T08:25:16;13.37;;;10.80;;
16228;SDS011;8222;51.462;12.630;2023-10-19T08:27:46;10.40;;;9.50;;
16228;SDS011;8222;51.462;12.630;2023-10-19T08:30:19;13.88;;;12.68;;
16228;SDS011;8222;51.462;12.630;2023-10-19T08:32:46;12.30;;;10.37;;
16228;SDS011;8222;51.462;12.630;2023-10-19T08:35:21;10.93;;;9.82;;
16228;SDS011;8222;51.462;12.630;2023-10-19T08:37:50;17.37;;;14.43;;
16228;SDS011;8222;51.462;12.630;2023-10-19T08:40:19;14.68;;;13.10;;
16228;SDS011;8222;51.462;12.630;2023-10-19T08:42:48;9.00;;;8.13;;
16228;SDS011;8222;51.462;12.630;2023-10-19T12:41:36;11.00;;;10.00;;
16228;SDS011;8222;51.462;12.630;2023-10-19T12:44:04;10.80;;;9.80;;
16228;SDS011;8222;51.462;12.630;2023-10-19T12:46:37;10.30;;;9.30;;
16228;SDS011;8222;51.462;12.630;2023-10-19T12:49:10;11.20;;;10.03;;
16228;SDS011;8222;51.462;12.630;2023-10-19T12:51:41;11.32;;;10.30;;
16228;SDS011;8222;51.462;12.630;2023-10-19T12:54:11;10.53;;;9.40;;
16228;SDS011;8222;51.462;12.630;2023-10-19T12:56:41;12.88;;;11.55;;
16228;SDS011;8222;51.462;12.630;2023-10-19T12:59:10;11.67;;;10.13;;
16228;SDS011;8222;51.462;12.630;2023-10-19T13:01:36;13.00;;;11.70;;
16228;SDS011;8222;51.462;12.630;2023-10-19T13:04:02;13.13;;;11.73;;
16228;SDS011;8222;51.462;12.630;2023-10-19T13:06:39;11.57;;;10.47;;
16228;SDS011;8222;51.462;12.630;2023-10-19T13:09:05;12.52;;;11.32;;
16228;SDS011;8222;51.462;12.630;2023-10-19T13:11:34;13.30;;;11.93;;
16228;SDS011;8222;51.462;12.630;2023-10-19T13:13:59;13.07;;;11.77;;
16228;SDS011;8222;51.462;12.630;2023-10-19T13:16:31;12.90;;;11.60;;
16228;SDS011;8222;51.462;12.630;2023-10-19T13:19:00;12.10;;;10.93;;
16228;SDS011;8222;51.462;12.630;2023-10-19T13:21:36;11.13;;;10.13;;
16228;SDS011;8222;51.462;12.630;2023-10-19T13:24:03;12.07;;;10.87;;
16228;SDS011;8222;51.462;12.630;2023-10-19T13:26:29;13.13;;;11.82;;
16228;SDS011;8222;51.462;12.630;2023-10-19T13:28:54;12.50;;;10.07;;
16228;SDS011;8222;51.462;12.630;2023-10-19T13:31:21;12.67;;;11.10;;
16228;SDS011;8222;51.462;12.630;2023-10-19T13:33:49;12.23;;;11.00;;
16228;SDS011;8222;51.462;12.630;2023-10-19T13:36:15;12.77;;;10.87;;
16228;SDS011;8222;51.462;12.630;2023-10-19T13:38:41;14.87;;;12.07;;
16228;SDS011;8222;51.462;12.630;2023-10-19T13:41:07;11.77;;;10.50;;
16228;SDS011;8222;51.462;12.630;2023-10-19T13:43:35;11.63;;;10.47;;
16228;SDS011;8222;51.462;12.630;2023-10-19T13:46:03;12.20;;;10.97;;
16228;SDS011;8222;51.462;12.630;2023-10-19T13:48:30;10.83;;;9.83;;
16228;SDS011;8222;51.462;12.630;2023-10-19T13:51:03;12.83;;;11.53;;
16228;SDS011;8222;51.462;12.630;2023-10-19T13:53:40;11.33;;;10.20;;
16228;SDS011;8222;51.462;12.630;2023-10-19T13:56:10;14.20;;;12.80;;
16228;SDS011;8222;51.462;12.630;2023-10-19T13:58:36;12.50;;;11.20;;
16228;SDS011;8222;51.462;12.630;2023-10-19T14:01:05;13.52;;;12.23;;
16228;SDS011;8222;51.462;12.630;2023-10-19T14:03:34;13.65;;;12.38;;
16228;SDS011;8222;51.462;12.630;2023-10-19T14:06:00;13.93;;;12.52;;
16228;SDS011;8222;51.462;12.630;2023-10-19T14:08:28;14.23;;;12.77;;
16228;SDS011;8222;51.462;12.630;2023-10-19T14:11:00;15.37;;;12.27;;
16228;SDS011;8222;51.462;12.630;2023-10-19T14:13:28;14.65;;;12.68;;
16228;SDS011;8222;51.462;12.630;2023-10-19T14:15:57;15.33;;;13.30;;
16228;SDS011;8222;51.462;12.630;2023-10-19T14:18:24;14.88;;;13.32;;
16228;SDS011;8222;51.462;12.630;2023-10-19T14:20:52;15.18;;;13.65;;
16228;SDS011;8222;51.462;12.630;2023-10-19T14:23:21;14.37;;;12.87;;
16228;SDS011;8222;51.462;12.630;2023-10-19T14:25:49;13.77;;;12.20;;
16228;SDS011;8222;51.462;12.630;2023-10-19T14:28:17;15.67;;;14.07;;
16228;SDS011;8222;51.462;12.630;2023-10-19T14:30:43;15.77;;;14.27;;
16228;SDS011;8222;51.462;12.630;2023-10-19T14:33:11;17.63;;;15.77;;
16228;SDS011;8222;51.462;12.630;2023-10-19T14:35:39;17.77;;;15.43;;
16228;SDS011;8222;51.462;12.630;2023-10-19T14:38:06;14.93;;;13.30;;
16228;SDS011;8222;51.462;12.630;2023-10-19T14:40:38;15.63;;;14.13;;
16228;SDS011;8222;51.462;12.630;2023-10-19T14:43:09;15.43;;;13.80;;
16228;SDS011;8222;51.462;12.630;2023-10-19T14:45:39;16.90;;;15.25;;
16228;SDS011;8222;51.462;12.630;2023-10-19T14:48:07;15.07;;;13.47;;
16228;SDS011;8222;51.462;12.630;2023-10-19T14:50:35;16.23;;;13.53;;
16228;SDS011;8222;51.462;12.630;2023-10-19T14:53:02;17.58;;;15.88;;
16228;SDS011;8222;51.462;12.630;2023-10-19T14:55:28;17.50;;;15.43;;
16228;SDS011;8222;51.462;12.630;2023-10-19T14:57:54;15.87;;;14.23;;
16228;SDS011;8222;51.462;12.630;2023-10-19T15:00:25;20.48;;;18.38;;
16228;SDS011;8222;51.462;12.630;2023-10-19T15:03:14;18.33;;;15.73;;
16228;SDS011;8222;51.462;12.630;2023-10-19T15:05:44;17.20;;;15.50;;
16228;SDS011;8222;51.462;12.630;2023-10-19T15:08:14;19.37;;;17.20;;
16228;SDS011;8222;51.462;12.630;2023-10-19T15:10:40;18.87;;;16.93;;
16228;SDS011;8222;51.462;12.630;2023-10-19T15:13:12;20.02;;;17.92;;
16228;SDS011;8222;51.462;12.630;2023-10-19T15:15:40;19.98;;;17.98;;
16228;SDS011;8222;51.462;12.630;2023-10-19T15:18:06;19.83;;;17.87;;
16228;SDS011;8222;51.462;12.630;2023-10-19T15:20:35;28.37;;;25.37;;
16228;SDS011;8222;51.462;12.630;2023-10-19T15:23:04;20.83;;;17.90;;
16228;SDS011;8222;51.462;12.630;2023-10-19T15:25:30;19.27;;;17.48;;
16228;SDS011;8222;51.462;12.630;2023-10-19T15:27:59;19.90;;;17.80;;
16228;SDS011;8222;51.462;12.630;2023-10-19T15:30:27;19.08;;;17.17;;
16228;SDS011;8222;51.462;12.630;2023-10-19T15:32:53;18.27;;;16.03;;
16228;SDS011;8222;51.462;12.630;2023-10-19T15:35:18;17.23;;;15.43;;
16228;SDS011;8222;51.462;12.630;2023-10-19T15:37:50;17.80;;;16.00;;
16228;SDS011;8222;51.462;12.630;2023-10-19T15:40:20;15.77;;;13.90;;
16228;SDS011;8222;51.462;12.630;2023-10-19T15:42:51;17.03;;;15.23;;
16228;SDS011;8222;51.462;12.630;2023-10-19T15:45:19;17.90;;;15.73;;
16228;SDS011;8222;51.462;12.630;2023-10-19T15:47:48;17.70;;;15.43;;
16228;SDS011;8222;51.462;12.630;2023-10-19T15:50:16;20.55;;;18.45;;
16228;SDS011;8222;51.462;12.630;2023-10-19T15:52:42;21.55;;;19.40;;
16228;SDS011;8222;51.462;12.630;2023-10-19T15:55:11;21.27;;;17.10;;
16228;SDS011;8222;51.462;12.630;2023-10-19T15:57:38;21.95;;;19.58;;
16228;SDS011;8222;51.462;12.630;2023-10-19T16:00:07;19.60;;;17.10;;
16228;SDS011;8222;51.462;12.630;2023-10-19T16:02:42;22.35;;;19.13;;
16228;SDS011;8222;51.462;12.630;2023-10-19T16:05:09;17.37;;;15.67;;
16228;SDS011;8222;51.462;12.630;2023-10-19T16:07:40;21.30;;;16.47;;
16228;SDS011;8222;51.462;12.630;2023-10-19T16:10:09;19.50;;;15.90;;
16228;SDS011;8222;51.462;12.630;2023-10-19T16:12:35;21.42;;;18.73;;
16228;SDS011;8222;51.462;12.630;2023-10-19T16:15:05;21.23;;;18.17;;
16228;SDS011;8222;51.462;12.630;2023-10-19T16:17:37;20.90;;;17.92;;
16228;SDS011;8222;51.462;12.630;2023-10-19T16:20:04;19.03;;;16.97;;
16228;SDS011;8222;51.462;12.630;2023-10-19T16:22:34;17.90;;;15.93;;
16228;SDS011;8222;51.462;12.630;2023-10-19T16:25:00;17.47;;;15.43;;
16228;SDS011;8222;51.462;12.630;2023-10-19T16:27:26;20.48;;;18.27;;
16228;SDS011;8222;51.462;12.630;2023-10-19T16:29:53;20.38;;;18.25;;
16228;SDS011;8222;51.462;12.630;2023-10-19T16:32:21;19.20;;;17.00;;
16228;SDS011;8222;51.462;12.630;2023-10-19T16:34:50;20.08;;;18.05;;
16228;SDS011;8222;51.462;12.630;2023-10-19T16:37:17;17.90;;;15.60;;
16228;SDS011;8222;51.462;12.630;2023-10-19T16:39:44;19.77;;;17.80;;
16228;SDS011;8222;51.462;12.630;2023-10-19T16:42:11;20.23;;;17.95;;
16228;SDS011;8222;51.462;12.630;2023-10-19T16:44:36;21.00;;;16.90;;
16228;SDS011;8222;51.462;12.630;2023-10-19T16:47:07;18.57;;;15.87;;
16228;SDS011;8222;51.462;12.630;2023-10-19T16:49:34;19.23;;;17.23;;
16228;SDS011;8222;51.462;12.630;2023-10-19T16:52:03;18.03;;;15.90;;
16228;SDS011;8222;51.462;12.630;2023-10-19T16:54:48;19.03;;;15.70;;
16228;SDS011;8222;51.462;12.630;2023-10-19T16:57:16;19.23;;;17.17;;
16228;SDS011;8222;51.462;12.630;2023-10-19T16:59:42;17.47;;;15.13;;
16228;SDS011;8222;51.462;12.630;2023-10-19T17:02:10;17.33;;;15.53;;
16228;SDS011;8222;51.462;12.630;2023-10-19T17:04:40;16.70;;;14.87;;
16228;SDS011;8222;51.462;12.630;2023-10-19T17:07:06;18.33;;;16.20;;
16228;SDS011;8222;51.462;12.630;2023-10-19T17:09:33;19.77;;;16.10;;
16228;SDS011;8222;51.462;12.630;2023-10-19T17:11:59;16.80;;;14.63;;
16228;SDS011;8222;51.462;12.630;2023-10-19T17:14:25;19.17;;;17.15;;
16228;SDS011;8222;51.462;12.630;2023-10-19T17:16:53;20.15;;;17.83;;
16228;SDS011;8222;51.462;12.630;2023-10-19T17:19:21;17.63;;;15.77;;
16228;SDS011;8222;51.462;12.630;2023-10-19T17:21:47;17.67;;;15.80;;
16228;SDS011;8222;51.462;12.630;2023-10-19T17:24:16;52.05;;;39.83;;
16228;SDS011;8222;51.462;12.630;2023-10-19T17:26:41;22.83;;;20.25;;
16228;SDS011;8222;51.462;12.630;2023-10-19T17:29:07;19.08;;;17.08;;
16228;SDS011;8222;51.462;12.630;2023-10-19T17:31:33;18.17;;;16.07;;
16228;SDS011;8222;51.462;12.630;2023-10-19T17:34:00;19.58;;;17.55;;
16228;SDS011;8222;51.462;12.630;2023-10-19T17:36:27;17.67;;;15.77;;
16228;SDS011;8222;51.462;12.630;2023-10-19T17:38:53;17.30;;;15.30;;
16228;SDS011;8222;51.462;12.630;2023-10-19T17:41:19;17.20;;;15.40;;
16228;SDS011;8222;51.462;12.630;2023-10-19T17:43:45;17.33;;;14.93;;
16228;SDS011;8222;51.462;12.630;2023-10-19T17:46:11;16.67;;;14.17;;
16228;SDS011;8222;51.462;12.630;2023-10-19T17:48:44;16.87;;;15.17;;
16228;SDS011;8222;51.462;12.630;2023-10-19T17:51:13;20.30;;;15.60;;
16228;SDS011;8222;51.462;12.630;2023-10-19T17:53:40;18.53;;;16.03;;
16228;SDS011;8222;51.462;12.630;2023-10-19T17:56:07;17.20;;;15.40;;
16228;SDS011;8222;51.462;12.630;2023-10-19T17:58:36;19.40;;;16.90;;
16228;SDS011;8222;51.462;12.630;2023-10-19T18:01:04;21.08;;;18.30;;
16228;SDS011;8222;51.462;12.630;2023-10-19T18:03:35;17.03;;;15.20;;
16228;SDS011;8222;51.462;12.630;2023-10-19T18:06:05;19.67;;;16.53;;
16228;SDS011;8222;51.462;12.630;2023-10-19T18:08:33;20.63;;;17.55;;
16228;SDS011;8222;51.462;12.630;2023-10-19T18:11:00;19.55;;;17.45;;
16228;SDS011;8222;51.462;12.630;2023-10-19T18:13:29;20.07;;;17.00;;
16228;SDS011;8222;51.462;12.630;2023-10-19T18:16:01;20.00;;;17.13;;
16228;SDS011;8222;51.462;12.630;2023-10-19T18:18:28;18.67;;;16.73;;
16228;SDS011;8222;51.462;12.630;2023-10-19T18:20:56;21.15;;;18.17;;
16228;SDS011;8222;51.462;12.630;2023-10-19T18:23:25;19.90;;;17.37;;
16228;SDS011;8222;51.462;12.630;2023-10-19T18:26:03;20.80;;;17.67;;
16228;SDS011;8222;51.462;12.630;2023-10-19T18:28:30;22.15;;;17.38;;
16228;SDS011;8222;51.462;12.630;2023-10-19T18:31:17;19.37;;;16.57;;
16228;SDS011;8222;51.462;12.630;2023-10-19T18:33:45;21.95;;;19.55;;
16228;SDS011;8222;51.462;12.630;2023-10-19T18:36:16;24.70;;;19.40;;
16228;SDS011;8222;51.462;12.630;2023-10-19T18:38:45;23.93;;;18.77;;
16228;SDS011;8222;51.462;12.630;2023-10-19T18:41:15;22.53;;;17.80;;